sensor_id;sensor_type;location;lat;lon;timestamp;temperature;humidity
23987;DHT22;12514;52.140;5.602;2022-09-23T00:01:44;10.70;99.90
23987;DHT22;12514;52.140;5.602;2022-09-23T00:04:11;10.70;99.90
23987;DHT22;12514;52.140;5.602;2022-09-23T00:06:38;10.70;99.90
23987;DHT22;12514;52.140;5.602;2022-09-23T00:12:26;10.60;99.90
23987;DHT22;12514;52.140;5.602;2022-09-23T00:14:51;10.70;99.90
23987;DHT22;12514;52.140;5.602;2022-09-23T00:17:17;10.60;99.90
23987;DHT22;12514;52.140;5.602;2022-09-23T00:19:42;10.50;99.90
23987;DHT22;12514;52.140;5.602;2022-09-23T00:22:08;10.50;99.90
23987;DHT22;12514;52.140;5.602;2022-09-23T00:24:33;10.50;99.90
23987;DHT22;12514;52.140;5.602;2022-09-23T00:27:00;10.50;99.90
23987;DHT22;12514;52.140;5.602;2022-09-23T00:29:25;10.70;99.90
23987;DHT22;12514;52.140;5.602;2022-09-23T00:31:51;10.60;99.90
23987;DHT22;12514;52.140;5.602;2022-09-23T00:34:17;10.60;99.90
23987;DHT22;12514;52.140;5.602;2022-09-23T00:36:43;10.60;99.90
23987;DHT22;12514;52.140;5.602;2022-09-23T00:42:30;10.50;99.90
23987;DHT22;12514;52.140;5.602;2022-09-23T00:44:57;10.40;99.90
23987;DHT22;12514;52.140;5.602;2022-09-23T00:47:47;10.40;99.90
23987;DHT22;12514;52.140;5.602;2022-09-23T00:53:00;10.40;99.90
23987;DHT22;12514;52.140;5.602;2022-09-23T00:55:41;10.50;99.90
23987;DHT22;12514;52.140;5.602;2022-09-23T00:58:10;10.40;99.90
23987;DHT22;12514;52.140;5.602;2022-09-23T01:00:37;10.30;99.90
23987;DHT22;12514;52.140;5.602;2022-09-23T01:03:05;10.30;99.90
23987;DHT22;12514;52.140;5.602;2022-09-23T01:05:32;10.30;99.90
23987;DHT22;12514;52.140;5.602;2022-09-23T01:07:59;10.30;99.90
23987;DHT22;12514;52.140;5.602;2022-09-23T01:14:18;10.30;99.90
23987;DHT22;12514;52.140;5.602;2022-09-23T01:30:40;10.10;99.90
23987;DHT22;12514;52.140;5.602;2022-09-23T01:41:43;9.90;99.90
23987;DHT22;12514;52.140;5.602;2022-09-23T01:44:27;9.90;99.90
23987;DHT22;12514;52.140;5.602;2022-09-23T01:47:03;9.90;99.90
23987;DHT22;12514;52.140;5.602;2022-09-23T01:49:52;9.90;99.90
23987;DHT22;12514;52.140;5.602;2022-09-23T01:52:43;9.90;99.90
23987;DHT22;12514;52.140;5.602;2022-09-23T01:55:32;9.90;99.90
23987;DHT22;12514;52.140;5.602;2022-09-23T01:58:04;9.80;99.90
23987;DHT22;12514;52.140;5.602;2022-09-23T02:00:35;9.80;99.90
23987;DHT22;12514;52.140;5.602;2022-09-23T02:03:20;9.80;99.90
23987;DHT22;12514;52.140;5.602;2022-09-23T02:05:57;9.80;99.90
23987;DHT22;12514;52.140;5.602;2022-09-23T02:08:38;9.70;99.90
23987;DHT22;12514;52.140;5.602;2022-09-23T02:11:10;9.70;99.90
23987;DHT22;12514;52.140;5.602;2022-09-23T02:19:04;9.80;99.90
23987;DHT22;12514;52.140;5.602;2022-09-23T02:21:34;9.70;99.90
23987;DHT22;12514;52.140;5.602;2022-09-23T02:24:10;9.70;99.90
23987;DHT22;12514;52.140;5.602;2022-09-23T02:26:50;9.70;99.90
23987;DHT22;12514;52.140;5.602;2022-09-23T02:35:37;9.70;99.90
23987;DHT22;12514;52.140;5.602;2022-09-23T02:44:08;9.70;99.90
23987;DHT22;12514;52.140;5.602;2022-09-23T02:46:35;9.80;99.90
23987;DHT22;12514;52.140;5.602;2022-09-23T02:49:08;9.70;99.90
23987;DHT22;12514;52.140;5.602;2022-09-23T02:51:36;9.60;99.90
23987;DHT22;12514;52.140;5.602;2022-09-23T02:57:24;9.60;99.90
23987;DHT22;12514;52.140;5.602;2022-09-23T02:59:50;9.50;99.90
23987;DHT22;12514;52.140;5.602;2022-09-23T03:03:00;9.50;99.90
23987;DHT22;12514;52.140;5.602;2022-09-23T03:05:23;9.50;99.90
23987;DHT22;12514;52.140;5.602;2022-09-23T03:14:04;9.10;99.90
23987;DHT22;12514;52.140;5.602;2022-09-23T03:21:54;9.20;99.90
23987;DHT22;12514;52.140;5.602;2022-09-23T03:24:22;9.10;99.90
23987;DHT22;12514;52.140;5.602;2022-09-23T03:26:49;9.20;99.90
23987;DHT22;12514;52.140;5.602;2022-09-23T03:29:18;9.20;99.90
23987;DHT22;12514;52.140;5.602;2022-09-23T03:31:45;9.20;99.90
23987;DHT22;12514;52.140;5.602;2022-09-23T03:34:23;9.20;99.90
23987;DHT22;12514;52.140;5.602;2022-09-23T03:36:57;9.20;99.90
23987;DHT22;12514;52.140;5.602;2022-09-23T03:39:33;9.20;99.90
23987;DHT22;12514;52.140;5.602;2022-09-23T03:42:06;9.30;99.90
23987;DHT22;12514;52.140;5.602;2022-09-23T03:44:35;9.30;99.90
23987;DHT22;12514;52.140;5.602;2022-09-23T03:47:04;9.30;99.90
23987;DHT22;12514;52.140;5.602;2022-09-23T03:49:34;9.30;99.90
23987;DHT22;12514;52.140;5.602;2022-09-23T03:52:00;9.20;99.90
23987;DHT22;12514;52.140;5.602;2022-09-23T03:54:28;9.20;99.90
23987;DHT22;12514;52.140;5.602;2022-09-23T03:56:55;9.20;99.90
23987;DHT22;12514;52.140;5.602;2022-09-23T03:59:25;9.20;99.90
23987;DHT22;12514;52.140;5.602;2022-09-23T04:01:51;9.20;99.90
23987;DHT22;12514;52.140;5.602;2022-09-23T04:04:17;9.20;99.90
23987;DHT22;12514;52.140;5.602;2022-09-23T04:06:43;9.20;99.90
23987;DHT22;12514;52.140;5.602;2022-09-23T04:09:08;9.30;99.90
23987;DHT22;12514;52.140;5.602;2022-09-23T04:11:34;9.20;99.90
23987;DHT22;12514;52.140;5.602;2022-09-23T04:14:00;9.20;99.90
23987;DHT22;12514;52.140;5.602;2022-09-23T04:16:26;9.20;99.90
23987;DHT22;12514;52.140;5.602;2022-09-23T04:18:52;9.30;99.90
23987;DHT22;12514;52.140;5.602;2022-09-23T04:21:17;9.30;99.90
23987;DHT22;12514;52.140;5.602;2022-09-23T04:23:43;9.30;99.90
23987;DHT22;12514;52.140;5.602;2022-09-23T04:26:11;9.20;99.90
23987;DHT22;12514;52.140;5.602;2022-09-23T04:28:37;9.20;99.90
23987;DHT22;12514;52.140;5.602;2022-09-23T04:31:07;9.20;99.90
23987;DHT22;12514;52.140;5.602;2022-09-23T04:33:33;9.30;99.90
23987;DHT22;12514;52.140;5.602;2022-09-23T04:35:59;9.30;99.90
23987;DHT22;12514;52.140;5.602;2022-09-23T04:38:25;9.30;99.90
23987;DHT22;12514;52.140;5.602;2022-09-23T04:40:51;9.30;99.90
23987;DHT22;12514;52.140;5.602;2022-09-23T04:43:16;9.20;99.90
23987;DHT22;12514;52.140;5.602;2022-09-23T04:45:43;9.20;99.90
23987;DHT22;12514;52.140;5.602;2022-09-23T04:48:10;9.20;99.90
23987;DHT22;12514;52.140;5.602;2022-09-23T04:50:35;9.20;99.90
23987;DHT22;12514;52.140;5.602;2022-09-23T04:53:02;9.10;99.90
23987;DHT22;12514;52.140;5.602;2022-09-23T04:55:28;9.10;99.90
23987;DHT22;12514;52.140;5.602;2022-09-23T04:57:54;9.20;99.90
23987;DHT22;12514;52.140;5.602;2022-09-23T05:00:20;9.20;99.90
23987;DHT22;12514;52.140;5.602;2022-09-23T05:02:48;9.20;99.90
23987;DHT22;12514;52.140;5.602;2022-09-23T05:05:15;9.20;99.90
23987;DHT22;12514;52.140;5.602;2022-09-23T05:07:49;9.20;99.90
23987;DHT22;12514;52.140;5.602;2022-09-23T05:13:37;9.20;99.90
23987;DHT22;12514;52.140;5.602;2022-09-23T05:16:05;9.20;99.90
23987;DHT22;12514;52.140;5.602;2022-09-23T05:18:34;9.20;99.90
23987;DHT22;12514;52.140;5.602;2022-09-23T05:21:00;9.30;99.90
23987;DHT22;12514;52.140;5.602;2022-09-23T05:23:26;9.30;99.90
23987;DHT22;12514;52.140;5.602;2022-09-23T05:26:04;9.40;99.90
23987;DHT22;12514;52.140;5.602;2022-09-23T05:28:31;9.40;99.90
23987;DHT22;12514;52.140;5.602;2022-09-23T05:31:01;9.40;99.90
23987;DHT22;12514;52.140;5.602;2022-09-23T05:33:27;9.40;99.90
23987;DHT22;12514;52.140;5.602;2022-09-23T05:35:54;9.50;99.90
23987;DHT22;12514;52.140;5.602;2022-09-23T05:38:20;9.50;99.90
23987;DHT22;12514;52.140;5.602;2022-09-23T05:40:45;9.50;99.90
23987;DHT22;12514;52.140;5.602;2022-09-23T05:43:11;9.50;99.90
23987;DHT22;12514;52.140;5.602;2022-09-23T05:45:38;9.50;99.90
23987;DHT22;12514;52.140;5.602;2022-09-23T05:48:03;9.60;99.90
23987;DHT22;12514;52.140;5.602;2022-09-23T05:50:29;9.60;99.90
23987;DHT22;12514;52.140;5.602;2022-09-23T05:52:55;9.70;99.90
23987;DHT22;12514;52.140;5.602;2022-09-23T05:58:43;9.80;99.90
23987;DHT22;12514;52.140;5.602;2022-09-23T06:01:13;9.80;99.90
23987;DHT22;12514;52.140;5.602;2022-09-23T06:03:39;9.80;99.90
23987;DHT22;12514;52.140;5.602;2022-09-23T06:06:09;9.80;99.90
23987;DHT22;12514;52.140;5.602;2022-09-23T06:08:36;9.90;99.90
23987;DHT22;12514;52.140;5.602;2022-09-23T06:11:04;9.90;99.90
23987;DHT22;12514;52.140;5.602;2022-09-23T06:13:35;10.00;99.90
23987;DHT22;12514;52.140;5.602;2022-09-23T06:16:11;10.00;99.90
23987;DHT22;12514;52.140;5.602;2022-09-23T06:18:39;10.00;99.90
23987;DHT22;12514;52.140;5.602;2022-09-23T06:21:06;10.10;99.90
23987;DHT22;12514;52.140;5.602;2022-09-23T06:23:32;10.20;99.90
23987;DHT22;12514;52.140;5.602;2022-09-23T06:26:02;10.20;99.90
23987;DHT22;12514;52.140;5.602;2022-09-23T06:28:33;10.30;99.90
23987;DHT22;12514;52.140;5.602;2022-09-23T06:31:00;10.40;99.90
23987;DHT22;12514;52.140;5.602;2022-09-23T06:33:26;10.40;99.90
23987;DHT22;12514;52.140;5.602;2022-09-23T06:35:56;10.50;99.90
23987;DHT22;12514;52.140;5.602;2022-09-23T06:38:22;10.50;99.90
23987;DHT22;12514;52.140;5.602;2022-09-23T06:44:11;10.80;99.90
23987;DHT22;12514;52.140;5.602;2022-09-23T06:46:37;10.80;99.90
23987;DHT22;12514;52.140;5.602;2022-09-23T06:49:03;10.90;99.90
23987;DHT22;12514;52.140;5.602;2022-09-23T06:51:28;11.00;99.90
23987;DHT22;12514;52.140;5.602;2022-09-23T06:53:54;11.00;99.90
23987;DHT22;12514;52.140;5.602;2022-09-23T06:56:20;11.20;99.90
23987;DHT22;12514;52.140;5.602;2022-09-23T06:58:47;11.20;99.90
23987;DHT22;12514;52.140;5.602;2022-09-23T07:01:16;11.30;99.90
23987;DHT22;12514;52.140;5.602;2022-09-23T07:03:43;11.40;99.90
23987;DHT22;12514;52.140;5.602;2022-09-23T07:06:09;11.40;99.90
23987;DHT22;12514;52.140;5.602;2022-09-23T07:08:35;11.50;99.90
23987;DHT22;12514;52.140;5.602;2022-09-23T07:11:04;11.60;99.90
23987;DHT22;12514;52.140;5.602;2022-09-23T07:13:30;11.60;99.90
23987;DHT22;12514;52.140;5.602;2022-09-23T07:15:58;11.60;99.90
23987;DHT22;12514;52.140;5.602;2022-09-23T07:18:26;11.80;99.90
23987;DHT22;12514;52.140;5.602;2022-09-23T07:20:52;11.70;99.90
23987;DHT22;12514;52.140;5.602;2022-09-23T07:23:19;11.80;99.90
23987;DHT22;12514;52.140;5.602;2022-09-23T07:29:06;12.00;99.90
23987;DHT22;12514;52.140;5.602;2022-09-23T07:31:33;12.10;99.90
23987;DHT22;12514;52.140;5.602;2022-09-23T07:33:59;12.30;99.90
23987;DHT22;12514;52.140;5.602;2022-09-23T07:36:26;12.40;99.90
23987;DHT22;12514;52.140;5.602;2022-09-23T07:38:53;12.50;99.90
23987;DHT22;12514;52.140;5.602;2022-09-23T07:41:29;12.60;99.90
23987;DHT22;12514;52.140;5.602;2022-09-23T07:43:56;12.70;99.90
23987;DHT22;12514;52.140;5.602;2022-09-23T07:46:25;12.90;99.90
23987;DHT22;12514;52.140;5.602;2022-09-23T07:48:52;13.00;99.90
23987;DHT22;12514;52.140;5.602;2022-09-23T07:51:20;13.10;99.90
23987;DHT22;12514;52.140;5.602;2022-09-23T07:53:47;13.10;99.90
23987;DHT22;12514;52.140;5.602;2022-09-23T07:56:13;13.10;99.90
23987;DHT22;12514;52.140;5.602;2022-09-23T07:58:41;13.20;99.90
23987;DHT22;12514;52.140;5.602;2022-09-23T08:01:08;13.10;99.90
23987;DHT22;12514;52.140;5.602;2022-09-23T08:03:35;13.10;99.90
23987;DHT22;12514;52.140;5.602;2022-09-23T08:06:12;13.20;99.90
23987;DHT22;12514;52.140;5.602;2022-09-23T08:08:39;13.20;99.90
23987;DHT22;12514;52.140;5.602;2022-09-23T08:14:30;13.30;99.90
23987;DHT22;12514;52.140;5.602;2022-09-23T08:16:55;13.40;99.90
23987;DHT22;12514;52.140;5.602;2022-09-23T08:19:22;13.50;99.90
23987;DHT22;12514;52.140;5.602;2022-09-23T08:21:49;13.50;99.90
23987;DHT22;12514;52.140;5.602;2022-09-23T08:24:19;13.60;99.90
23987;DHT22;12514;52.140;5.602;2022-09-23T08:26:46;13.70;99.90
23987;DHT22;12514;52.140;5.602;2022-09-23T08:29:13;13.80;99.90
23987;DHT22;12514;52.140;5.602;2022-09-23T08:31:40;13.90;99.90
23987;DHT22;12514;52.140;5.602;2022-09-23T08:34:06;14.00;99.90
23987;DHT22;12514;52.140;5.602;2022-09-23T08:36:32;14.10;99.90
23987;DHT22;12514;52.140;5.602;2022-09-23T08:38:58;14.20;99.90
23987;DHT22;12514;52.140;5.602;2022-09-23T08:44:52;14.40;99.90
23987;DHT22;12514;52.140;5.602;2022-09-23T08:47:28;14.30;99.90
23987;DHT22;12514;52.140;5.602;2022-09-23T08:50:28;14.40;99.90
23987;DHT22;12514;52.140;5.602;2022-09-23T08:52:56;14.50;99.90
23987;DHT22;12514;52.140;5.602;2022-09-23T08:55:36;14.50;99.90
23987;DHT22;12514;52.140;5.602;2022-09-23T08:58:40;14.60;99.90
23987;DHT22;12514;52.140;5.602;2022-09-23T09:06:48;14.70;99.90
23987;DHT22;12514;52.140;5.602;2022-09-23T09:12:44;14.80;99.90
23987;DHT22;12514;52.140;5.602;2022-09-23T09:15:17;14.90;99.90
23987;DHT22;12514;52.140;5.602;2022-09-23T09:20:59;15.10;99.90
23987;DHT22;12514;52.140;5.602;2022-09-23T09:23:57;15.10;99.90
23987;DHT22;12514;52.140;5.602;2022-09-23T09:29:47;15.00;99.90
23987;DHT22;12514;52.140;5.602;2022-09-23T09:34:50;15.00;99.90
23987;DHT22;12514;52.140;5.602;2022-09-23T09:37:32;15.00;99.90
23987;DHT22;12514;52.140;5.602;2022-09-23T09:40:00;15.10;99.90
23987;DHT22;12514;52.140;5.602;2022-09-23T09:42:38;15.20;99.90
23987;DHT22;12514;52.140;5.602;2022-09-23T09:45:18;15.30;99.90
23987;DHT22;12514;52.140;5.602;2022-09-23T09:48:11;15.30;99.90
23987;DHT22;12514;52.140;5.602;2022-09-23T09:53:26;15.40;99.90
23987;DHT22;12514;52.140;5.602;2022-09-23T09:58:34;15.40;99.90
23987;DHT22;12514;52.140;5.602;2022-09-23T10:01:28;15.30;99.90
23987;DHT22;12514;52.140;5.602;2022-09-23T10:03:56;15.40;99.90
23987;DHT22;12514;52.140;5.602;2022-09-23T10:06:27;15.60;99.90
23987;DHT22;12514;52.140;5.602;2022-09-23T10:09:15;15.70;99.90
23987;DHT22;12514;52.140;5.602;2022-09-23T10:11:42;15.60;99.90
23987;DHT22;12514;52.140;5.602;2022-09-23T10:14:26;15.70;99.90
23987;DHT22;12514;52.140;5.602;2022-09-23T10:17:02;15.70;99.90
23987;DHT22;12514;52.140;5.602;2022-09-23T10:19:30;15.80;99.90
23987;DHT22;12514;52.140;5.602;2022-09-23T10:21:58;15.90;99.90
23987;DHT22;12514;52.140;5.602;2022-09-23T10:24:27;16.00;99.90
23987;DHT22;12514;52.140;5.602;2022-09-23T10:26:59;16.20;99.90
23987;DHT22;12514;52.140;5.602;2022-09-23T10:29:49;16.30;99.90
23987;DHT22;12514;52.140;5.602;2022-09-23T10:32:33;16.40;99.90
23987;DHT22;12514;52.140;5.602;2022-09-23T10:37:57;16.60;99.90
23987;DHT22;12514;52.140;5.602;2022-09-23T10:44:07;16.80;99.90
23987;DHT22;12514;52.140;5.602;2022-09-23T10:53:07;16.90;99.90
23987;DHT22;12514;52.140;5.602;2022-09-23T10:56:05;17.10;99.90
23987;DHT22;12514;52.140;5.602;2022-09-23T11:01:50;16.90;99.90
23987;DHT22;12514;52.140;5.602;2022-09-23T11:20:40;17.00;99.90
23987;DHT22;12514;52.140;5.602;2022-09-23T11:29:21;17.10;99.90
23987;DHT22;12514;52.140;5.602;2022-09-23T11:37:05;17.30;99.90
23987;DHT22;12514;52.140;5.602;2022-09-23T11:40:02;17.30;99.90
23987;DHT22;12514;52.140;5.602;2022-09-23T11:46:03;17.30;99.90
23987;DHT22;12514;52.140;5.602;2022-09-23T11:48:46;17.40;99.90
23987;DHT22;12514;52.140;5.602;2022-09-23T11:56:44;17.60;99.90
23987;DHT22;12514;52.140;5.602;2022-09-23T12:01:51;17.80;99.90
23987;DHT22;12514;52.140;5.602;2022-09-23T12:05:02;17.70;99.90
23987;DHT22;12514;52.140;5.602;2022-09-23T12:07:58;17.70;99.90
23987;DHT22;12514;52.140;5.602;2022-09-23T12:13:53;17.90;99.90
23987;DHT22;12514;52.140;5.602;2022-09-23T12:28:05;18.30;99.90
23987;DHT22;12514;52.140;5.602;2022-09-23T12:30:36;18.40;99.90
23987;DHT22;12514;52.140;5.602;2022-09-23T12:33:19;18.40;99.90
23987;DHT22;12514;52.140;5.602;2022-09-23T12:35:47;18.50;99.90
23987;DHT22;12514;52.140;5.602;2022-09-23T12:38:20;18.50;99.90
23987;DHT22;12514;52.140;5.602;2022-09-23T12:46:44;18.50;99.90
23987;DHT22;12514;52.140;5.602;2022-09-23T12:54:47;18.50;99.90
23987;DHT22;12514;52.140;5.602;2022-09-23T13:00:35;18.60;99.90
23987;DHT22;12514;52.140;5.602;2022-09-23T13:03:01;18.60;99.90
23987;DHT22;12514;52.140;5.602;2022-09-23T13:05:51;18.60;99.90
23987;DHT22;12514;52.140;5.602;2022-09-23T13:08:40;18.60;99.90
23987;DHT22;12514;52.140;5.602;2022-09-23T13:13:43;18.60;99.90
23987;DHT22;12514;52.140;5.602;2022-09-23T13:16:29;18.60;99.90
23987;DHT22;12514;52.140;5.602;2022-09-23T13:19:03;18.60;99.90
23987;DHT22;12514;52.140;5.602;2022-09-23T13:29:21;18.80;99.90
23987;DHT22;12514;52.140;5.602;2022-09-23T13:31:48;18.80;99.90
23987;DHT22;12514;52.140;5.602;2022-09-23T13:34:19;19.00;99.90
23987;DHT22;12514;52.140;5.602;2022-09-23T13:36:47;19.00;99.90
23987;DHT22;12514;52.140;5.602;2022-09-23T13:39:23;19.10;99.90
23987;DHT22;12514;52.140;5.602;2022-09-23T13:41:52;19.10;99.90
23987;DHT22;12514;52.140;5.602;2022-09-23T13:44:20;19.00;99.90
23987;DHT22;12514;52.140;5.602;2022-09-23T13:46:49;19.10;99.90
23987;DHT22;12514;52.140;5.602;2022-09-23T13:49:41;19.00;99.90
23987;DHT22;12514;52.140;5.602;2022-09-23T13:52:25;19.00;99.90
23987;DHT22;12514;52.140;5.602;2022-09-23T13:54:51;18.90;99.90
23987;DHT22;12514;52.140;5.602;2022-09-23T13:57:31;18.90;99.90
23987;DHT22;12514;52.140;5.602;2022-09-23T14:00:14;18.80;99.90
23987;DHT22;12514;52.140;5.602;2022-09-23T14:02:44;18.80;99.90
23987;DHT22;12514;52.140;5.602;2022-09-23T14:05:12;18.80;99.90
23987;DHT22;12514;52.140;5.602;2022-09-23T14:07:38;18.80;99.90
23987;DHT22;12514;52.140;5.602;2022-09-23T14:10:05;18.90;99.90
23987;DHT22;12514;52.140;5.602;2022-09-23T14:12:37;18.90;99.90
23987;DHT22;12514;52.140;5.602;2022-09-23T14:15:03;18.90;99.90
23987;DHT22;12514;52.140;5.602;2022-09-23T14:17:29;18.90;99.90
23987;DHT22;12514;52.140;5.602;2022-09-23T14:19:55;18.90;99.90
23987;DHT22;12514;52.140;5.602;2022-09-23T14:22:26;18.70;99.90
23987;DHT22;12514;52.140;5.602;2022-09-23T14:24:53;18.60;99.90
23987;DHT22;12514;52.140;5.602;2022-09-23T14:27:31;18.80;99.90
23987;DHT22;12514;52.140;5.602;2022-09-23T14:29:58;18.90;99.90
23987;DHT22;12514;52.140;5.602;2022-09-23T14:32:25;18.90;99.90
23987;DHT22;12514;52.140;5.602;2022-09-23T14:40:31;18.80;99.90
23987;DHT22;12514;52.140;5.602;2022-09-23T14:45:44;19.00;99.90
23987;DHT22;12514;52.140;5.602;2022-09-23T14:48:17;18.90;99.90
23987;DHT22;12514;52.140;5.602;2022-09-23T14:50:58;18.90;99.90
23987;DHT22;12514;52.140;5.602;2022-09-23T14:53:45;18.90;99.90
23987;DHT22;12514;52.140;5.602;2022-09-23T14:56:22;18.90;99.90
23987;DHT22;12514;52.140;5.602;2022-09-23T14:58:54;18.90;99.90
23987;DHT22;12514;52.140;5.602;2022-09-23T15:01:39;18.90;99.90
23987;DHT22;12514;52.140;5.602;2022-09-23T15:04:16;18.80;99.90
23987;DHT22;12514;52.140;5.602;2022-09-23T15:07:00;18.80;99.90
23987;DHT22;12514;52.140;5.602;2022-09-23T15:09:38;18.80;99.90
23987;DHT22;12514;52.140;5.602;2022-09-23T15:15:26;18.80;99.90
23987;DHT22;12514;52.140;5.602;2022-09-23T15:17:52;18.70;99.90
23987;DHT22;12514;52.140;5.602;2022-09-23T15:20:25;18.80;99.90
23987;DHT22;12514;52.140;5.602;2022-09-23T15:22:54;18.70;99.90
23987;DHT22;12514;52.140;5.602;2022-09-23T15:31:16;18.70;99.90
23987;DHT22;12514;52.140;5.602;2022-09-23T15:33:49;18.60;99.90
23987;DHT22;12514;52.140;5.602;2022-09-23T15:38:45;18.50;99.90
23987;DHT22;12514;52.140;5.602;2022-09-23T15:41:12;18.50;99.90
23987;DHT22;12514;52.140;5.602;2022-09-23T15:47:03;18.50;99.90
23987;DHT22;12514;52.140;5.602;2022-09-23T15:49:33;18.50;99.90
23987;DHT22;12514;52.140;5.602;2022-09-23T15:52:02;18.50;99.90
23987;DHT22;12514;52.140;5.602;2022-09-23T15:54:28;18.40;99.90
23987;DHT22;12514;52.140;5.602;2022-09-23T15:56:54;18.40;99.90
23987;DHT22;12514;52.140;5.602;2022-09-23T16:02:47;18.40;99.90
23987;DHT22;12514;52.140;5.602;2022-09-23T16:05:25;18.30;99.90
23987;DHT22;12514;52.140;5.602;2022-09-23T16:07:51;18.30;99.90
23987;DHT22;12514;52.140;5.602;2022-09-23T16:10:21;18.30;99.90
23987;DHT22;12514;52.140;5.602;2022-09-23T16:12:47;18.20;99.90
23987;DHT22;12514;52.140;5.602;2022-09-23T16:15:16;18.30;99.90
23987;DHT22;12514;52.140;5.602;2022-09-23T16:17:51;18.20;99.90
23987;DHT22;12514;52.140;5.602;2022-09-23T16:20:24;18.20;99.90
23987;DHT22;12514;52.140;5.602;2022-09-23T16:22:56;18.10;99.90
23987;DHT22;12514;52.140;5.602;2022-09-23T16:25:25;18.00;99.90
23987;DHT22;12514;52.140;5.602;2022-09-23T16:27:52;18.00;99.90
23987;DHT22;12514;52.140;5.602;2022-09-23T16:30:30;17.90;99.90
23987;DHT22;12514;52.140;5.602;2022-09-23T16:32:56;17.90;99.90
23987;DHT22;12514;52.140;5.602;2022-09-23T16:35:25;17.90;99.90
23987;DHT22;12514;52.140;5.602;2022-09-23T16:37:51;17.80;99.90
23987;DHT22;12514;52.140;5.602;2022-09-23T16:40:23;17.80;99.90
23987;DHT22;12514;52.140;5.602;2022-09-23T16:42:50;17.70;99.90
23987;DHT22;12514;52.140;5.602;2022-09-23T16:48:39;17.80;99.90
23987;DHT22;12514;52.140;5.602;2022-09-23T16:51:12;17.70;99.90
23987;DHT22;12514;52.140;5.602;2022-09-23T16:53:38;17.60;99.90
23987;DHT22;12514;52.140;5.602;2022-09-23T16:56:09;17.50;99.90
23987;DHT22;12514;52.140;5.602;2022-09-23T16:58:36;17.50;99.90
23987;DHT22;12514;52.140;5.602;2022-09-23T17:01:03;17.40;99.90
23987;DHT22;12514;52.140;5.602;2022-09-23T17:03:47;17.30;99.90
23987;DHT22;12514;52.140;5.602;2022-09-23T17:06:13;17.20;99.90
23987;DHT22;12514;52.140;5.602;2022-09-23T17:08:40;17.10;99.90
23987;DHT22;12514;52.140;5.602;2022-09-23T17:11:06;17.10;99.90
23987;DHT22;12514;52.140;5.602;2022-09-23T17:13:32;17.20;99.90
23987;DHT22;12514;52.140;5.602;2022-09-23T17:15:58;17.10;99.90
23987;DHT22;12514;52.140;5.602;2022-09-23T17:18:25;17.10;99.90
23987;DHT22;12514;52.140;5.602;2022-09-23T17:21:03;17.00;99.90
23987;DHT22;12514;52.140;5.602;2022-09-23T17:23:29;17.00;99.90
23987;DHT22;12514;52.140;5.602;2022-09-23T17:25:56;17.10;99.90
23987;DHT22;12514;52.140;5.602;2022-09-23T17:28:22;17.00;99.90
23987;DHT22;12514;52.140;5.602;2022-09-23T17:34:24;16.80;99.90
23987;DHT22;12514;52.140;5.602;2022-09-23T17:36:50;16.70;99.90
23987;DHT22;12514;52.140;5.602;2022-09-23T17:39:16;16.50;99.90
23987;DHT22;12514;52.140;5.602;2022-09-23T17:41:42;16.50;99.90
23987;DHT22;12514;52.140;5.602;2022-09-23T17:44:09;16.50;99.90
23987;DHT22;12514;52.140;5.602;2022-09-23T17:46:35;16.40;99.90
23987;DHT22;12514;52.140;5.602;2022-09-23T17:49:01;16.50;99.90
23987;DHT22;12514;52.140;5.602;2022-09-23T17:51:28;16.60;99.90
23987;DHT22;12514;52.140;5.602;2022-09-23T17:53:54;16.60;99.90
23987;DHT22;12514;52.140;5.602;2022-09-23T17:56:22;16.50;99.90
23987;DHT22;12514;52.140;5.602;2022-09-23T17:58:49;16.50;99.90
23987;DHT22;12514;52.140;5.602;2022-09-23T18:04:37;16.50;99.90
23987;DHT22;12514;52.140;5.602;2022-09-23T18:07:03;16.30;99.90
23987;DHT22;12514;52.140;5.602;2022-09-23T18:09:28;16.40;99.90
23987;DHT22;12514;52.140;5.602;2022-09-23T18:11:54;16.50;99.90
23987;DHT22;12514;52.140;5.602;2022-09-23T18:14:21;16.50;99.90
23987;DHT22;12514;52.140;5.602;2022-09-23T18:16:50;16.50;99.90
23987;DHT22;12514;52.140;5.602;2022-09-23T18:19:18;16.50;99.90
23987;DHT22;12514;52.140;5.602;2022-09-23T18:21:46;16.50;99.90
23987;DHT22;12514;52.140;5.602;2022-09-23T18:24:12;16.50;99.90
23987;DHT22;12514;52.140;5.602;2022-09-23T18:26:38;16.30;99.90
23987;DHT22;12514;52.140;5.602;2022-09-23T18:29:04;16.40;99.90
23987;DHT22;12514;52.140;5.602;2022-09-23T18:31:32;16.30;99.90
23987;DHT22;12514;52.140;5.602;2022-09-23T18:34:00;16.30;99.90
23987;DHT22;12514;52.140;5.602;2022-09-23T18:36:26;16.20;99.90
23987;DHT22;12514;52.140;5.602;2022-09-23T18:38:53;16.30;99.90
23987;DHT22;12514;52.140;5.602;2022-09-23T18:41:20;16.30;99.90
23987;DHT22;12514;52.140;5.602;2022-09-23T18:43:46;16.30;99.90
23987;DHT22;12514;52.140;5.602;2022-09-23T18:46:17;16.30;99.90
23987;DHT22;12514;52.140;5.602;2022-09-23T18:48:43;16.40;99.90
23987;DHT22;12514;52.140;5.602;2022-09-23T18:51:28;16.40;99.90
23987;DHT22;12514;52.140;5.602;2022-09-23T18:53:58;16.30;99.90
23987;DHT22;12514;52.140;5.602;2022-09-23T18:56:32;16.30;99.90
23987;DHT22;12514;52.140;5.602;2022-09-23T18:58:59;16.30;99.90
23987;DHT22;12514;52.140;5.602;2022-09-23T19:01:25;16.30;99.90
23987;DHT22;12514;52.140;5.602;2022-09-23T19:03:57;16.30;99.90
23987;DHT22;12514;52.140;5.602;2022-09-23T19:06:24;16.30;99.90
23987;DHT22;12514;52.140;5.602;2022-09-23T19:08:52;16.20;99.90
23987;DHT22;12514;52.140;5.602;2022-09-23T19:11:18;16.20;99.90
23987;DHT22;12514;52.140;5.602;2022-09-23T19:13:44;16.20;99.90
23987;DHT22;12514;52.140;5.602;2022-09-23T19:16:12;16.20;99.90
23987;DHT22;12514;52.140;5.602;2022-09-23T19:18:39;16.20;99.90
23987;DHT22;12514;52.140;5.602;2022-09-23T19:21:07;16.20;99.90
23987;DHT22;12514;52.140;5.602;2022-09-23T19:23:34;16.10;99.90
23987;DHT22;12514;52.140;5.602;2022-09-23T19:26:05;16.20;99.90
23987;DHT22;12514;52.140;5.602;2022-09-23T19:28:31;16.20;99.90
23987;DHT22;12514;52.140;5.602;2022-09-23T19:30:56;16.20;99.90
23987;DHT22;12514;52.140;5.602;2022-09-23T19:33:23;16.30;99.90
23987;DHT22;12514;52.140;5.602;2022-09-23T19:35:50;16.30;99.90
23987;DHT22;12514;52.140;5.602;2022-09-23T19:38:18;16.30;99.90
23987;DHT22;12514;52.140;5.602;2022-09-23T19:40:46;16.30;99.90
23987;DHT22;12514;52.140;5.602;2022-09-23T19:43:14;16.20;99.90
23987;DHT22;12514;52.140;5.602;2022-09-23T19:45:40;16.30;99.90
23987;DHT22;12514;52.140;5.602;2022-09-23T19:48:07;16.20;99.90
23987;DHT22;12514;52.140;5.602;2022-09-23T19:50:38;16.20;99.90
23987;DHT22;12514;52.140;5.602;2022-09-23T19:53:05;16.20;99.90
23987;DHT22;12514;52.140;5.602;2022-09-23T19:55:33;16.20;99.90
23987;DHT22;12514;52.140;5.602;2022-09-23T19:58:00;16.20;99.90
23987;DHT22;12514;52.140;5.602;2022-09-23T20:00:26;16.10;99.90